Terminal Aerodrome Forecast
Issued by NWS

Current Version | Previous Version | Text Only | Print | Product List | Glossary Off
Versions: 1 2 3 4 5 6 7 8 9 10 11 12 13 14 15 16 17 18 19 20 21 22 23 24 25 26 27 28 29 30

000
FTUS41 KILN 132122 AAC
TAFLCK
TAF AMD
KLCK 132122Z 1321/1418 16010KT P6SM BKN110
     FM132300 20021G34KT P6SM -SHSN OVC050
     FM140200 23017G27KT P6SM VCSH OVC040
     FM140400 27015G25KT P6SM OVC022
     FM140800 31012G21KT P6SM OVC018
     FM141500 35007KT P6SM SCT015=

USA.gov is the U.S. government's official web portal to all federal, state and local government web resources and services.